Time;durP1;ratioP1;P1;durP2;ratioP2;P2;SDS_P1;SDS_P2;PMS_P1;PMS_P2;Temp;Humidity;BMP_temperature;BMP_pressure;BME280_temperature;BME280_humidity;BME280_pressure;Samples;Min_cycle;Max_cycle;Signal;HPM_P1;HPM_P2
2021/10/30 00:01:26;;;;;;;10.05;6.38;;;10.70;81.80;;;;;;5091674;28;20027;-54
2021/10/30 00:03:51;;;;;;;8.27;6.05;;;10.60;81.90;;;;;;5088395;28;20050;-54
2021/10/30 00:06:18;;;;;;;7.60;5.82;;;10.60;82.10;;;;;;5071195;28;20440;-56
2021/10/30 00:08:44;;;;;;;8.63;6.15;;;10.60;82.30;;;;;;5088777;28;20110;-55
2021/10/30 00:11:09;;;;;;;9.18;6.13;;;10.50;82.50;;;;;;5092024;28;20111;-55
2021/10/30 00:13:35;;;;;;;7.72;6.18;;;10.50;82.60;;;;;;5089066;28;20028;-56
2021/10/30 00:16:01;;;;;;;8.32;5.55;;;10.60;82.90;;;;;;5093356;28;20035;-53
2021/10/30 00:18:27;;;;;;;8.80;6.10;;;10.60;83.20;;;;;;5088661;28;20020;-56
2021/10/30 00:20:53;;;;;;;10.98;5.95;;;10.60;83.10;;;;;;5090877;28;20452;-53
2021/10/30 00:23:19;;;;;;;8.50;6.53;;;10.70;82.70;;;;;;5099127;28;20048;-53
2021/10/30 00:25:45;;;;;;;8.57;6.32;;;10.60;82.40;;;;;;5082055;28;20429;-55
2021/10/30 00:28:11;;;;;;;8.25;6.28;;;10.60;82.40;;;;;;5095662;28;20028;-53
2021/10/30 00:30:37;;;;;;;10.23;7.20;;;10.60;82.30;;;;;;5094660;28;20448;-53
2021/10/30 00:33:03;;;;;;;9.55;6.57;;;10.60;82.70;;;;;;5090245;28;20020;-54
2021/10/30 00:35:29;;;;;;;9.23;6.18;;;10.60;82.80;;;;;;5092549;28;20036;-53
2021/10/30 00:37:54;;;;;;;8.65;6.72;;;10.60;82.90;;;;;;5099354;28;20020;-56
2021/10/30 00:40:20;;;;;;;11.73;6.88;;;10.60;82.90;;;;;;5088136;28;20032;-56
2021/10/30 00:42:46;;;;;;;9.55;6.75;;;10.60;82.80;;;;;;5080861;28;20036;-55
2021/10/30 00:45:11;;;;;;;9.50;6.63;;;10.70;82.60;;;;;;5083252;28;20483;-55
2021/10/30 00:47:37;;;;;;;8.77;6.32;;;10.70;82.60;;;;;;5082514;28;20032;-56
2021/10/30 00:50:04;;;;;;;8.75;6.75;;;10.70;82.60;;;;;;5093637;28;20020;-54
2021/10/30 00:52:30;;;;;;;10.15;7.32;;;10.70;82.70;;;;;;5096427;28;20165;-56
2021/10/30 00:54:59;;;;;;;11.23;7.32;;;10.70;82.70;;;;;;5098465;28;20428;-54
2021/10/30 00:57:27;;;;;;;9.52;6.38;;;10.70;82.70;;;;;;5094066;28;20025;-53
2021/10/30 00:59:53;;;;;;;10.27;7.43;;;10.80;82.90;;;;;;5089976;28;20453;-56
2021/10/30 01:02:20;;;;;;;10.93;7.70;;;10.80;82.90;;;;;;5096286;28;20055;-56
2021/10/30 01:04:46;;;;;;;9.27;6.88;;;10.90;83.00;;;;;;5099496;28;20456;-53
2021/10/30 01:07:11;;;;;;;9.90;6.72;;;10.90;82.80;;;;;;5097144;28;20024;-56
2021/10/30 01:09:37;;;;;;;10.23;7.63;;;10.90;82.70;;;;;;5094177;28;20024;-56
2021/10/30 01:12:03;;;;;;;12.73;8.00;;;11.00;82.60;;;;;;5080134;28;20020;-56
2021/10/30 01:14:30;;;;;;;11.10;8.00;;;11.00;82.40;;;;;;5076683;28;20036;-56
2021/10/30 01:17:02;;;;;;;10.73;7.40;;;11.00;81.90;;;;;;5095922;28;20047;-54
2021/10/30 01:19:29;;;;;;;10.23;7.38;;;11.00;81.50;;;;;;5091322;28;20027;-56
2021/10/30 01:21:56;;;;;;;11.32;7.38;;;10.90;81.60;;;;;;5100504;28;20035;-55
2021/10/30 01:24:21;;;;;;;11.52;8.00;;;10.80;81.50;;;;;;5092056;28;20024;-55
2021/10/30 01:26:48;;;;;;;11.13;7.97;;;10.80;81.60;;;;;;5075865;28;20031;-54
2021/10/30 01:29:14;;;;;;;10.18;7.10;;;10.70;81.50;;;;;;5079056;28;20031;-53
2021/10/30 01:31:39;;;;;;;11.20;7.80;;;10.70;81.60;;;;;;5096153;28;20027;-56
2021/10/30 01:34:06;;;;;;;11.57;7.70;;;10.60;81.50;;;;;;5080587;28;20043;-55
2021/10/30 01:36:35;;;;;;;12.48;7.68;;;10.50;81.60;;;;;;5091706;28;20036;-53
2021/10/30 01:39:02;;;;;;;13.13;8.45;;;10.40;81.90;;;;;;5059038;28;20069;-55
2021/10/30 01:41:28;;;;;;;12.05;8.00;;;10.40;82.90;;;;;;5094149;28;20070;-56
2021/10/30 01:43:57;;;;;;;11.95;7.80;;;10.40;82.60;;;;;;5077649;28;20032;-53
2021/10/30 01:46:24;;;;;;;11.30;8.15;;;10.40;82.70;;;;;;5072425;28;20412;-53
2021/10/30 01:48:51;;;;;;;10.80;8.02;;;10.30;82.60;;;;;;5072826;28;20029;-55
2021/10/30 01:51:17;;;;;;;9.90;7.57;;;10.30;82.80;;;;;;5092287;28;20036;-55
2021/10/30 01:53:44;;;;;;;13.52;9.25;;;10.30;83.60;;;;;;5093124;28;20032;-56
2021/10/30 01:56:10;;;;;;;12.07;8.32;;;10.40;83.00;;;;;;5094528;28;20028;-53
2021/10/30 01:58:37;;;;;;;12.63;8.43;;;10.40;83.00;;;;;;5094576;28;20058;-56
2021/10/30 02:01:06;;;;;;;12.52;8.95;;;10.40;82.90;;;;;;5084842;28;20411;-53
2021/10/30 02:03:33;;;;;;;12.15;8.35;;;10.40;82.90;;;;;;5074527;28;20027;-56
2021/10/30 02:05:59;;;;;;;12.30;8.23;;;10.40;82.90;;;;;;5090487;28;20036;-55
2021/10/30 02:08:26;;;;;;;13.18;9.48;;;10.50;82.90;;;;;;5109649;28;20040;-52
2021/10/30 02:10:51;;;;;;;16.98;9.65;;;10.50;82.90;;;;;;5097827;28;20152;-53
2021/10/30 02:13:19;;;;;;;22.00;11.43;;;10.50;83.00;;;;;;5094553;28;20049;-56
2021/10/30 02:15:46;;;;;;;17.45;10.00;;;10.50;82.90;;;;;;5094691;28;20032;-56
2021/10/30 02:18:12;;;;;;;15.63;9.52;;;10.50;82.90;;;;;;5094839;28;20156;-53
2021/10/30 02:20:38;;;;;;;18.02;10.73;;;10.60;82.90;;;;;;5094119;28;20046;-54
2021/10/30 02:23:04;;;;;;;27.27;12.60;;;10.60;82.80;;;;;;5091587;28;20023;-53
2021/10/30 02:25:29;;;;;;;38.92;14.60;;;10.60;82.60;;;;;;5114939;28;20506;-53
2021/10/30 02:27:55;;;;;;;46.33;14.85;;;10.60;82.60;;;;;;5101486;28;20020;-53
2021/10/30 02:30:21;;;;;;;45.55;14.82;;;10.60;82.60;;;;;;5094155;28;20384;-53
2021/10/30 02:32:49;;;;;;;31.75;13.15;;;10.60;82.60;;;;;;5094025;28;20035;-56
2021/10/30 02:35:15;;;;;;;25.23;11.85;;;10.70;82.50;;;;;;5094095;28;20084;-55
2021/10/30 02:37:41;;;;;;;36.33;13.90;;;10.60;82.30;;;;;;5092007;28;20068;-53
2021/10/30 02:40:08;;;;;;;30.80;12.98;;;10.60;82.10;;;;;;5094197;28;20452;-55
2021/10/30 02:42:34;;;;;;;22.10;11.82;;;10.60;82.00;;;;;;5114446;28;20024;-53
2021/10/30 02:45:00;;;;;;;22.58;11.70;;;10.50;82.10;;;;;;5114437;28;20523;-54
2021/10/30 02:47:27;;;;;;;21.88;11.77;;;10.50;82.10;;;;;;5114285;28;20142;-56
2021/10/30 02:49:52;;;;;;;25.40;12.75;;;10.50;82.30;;;;;;5104989;28;20485;-54
2021/10/30 02:52:19;;;;;;;27.25;13.50;;;10.50;82.50;;;;;;5094056;28;20096;-56
2021/10/30 02:54:44;;;;;;;28.67;13.65;;;10.50;82.80;;;;;;5093944;28;20032;-55
2021/10/30 02:57:10;;;;;;;28.85;13.77;;;10.60;82.50;;;;;;5082698;28;20022;-54
2021/10/30 02:59:35;;;;;;;39.35;14.73;;;10.60;82.40;;;;;;5098955;28;20032;-56
2021/10/30 03:02:01;;;;;;;43.20;16.55;;;10.60;82.30;;;;;;5091741;28;20395;-55
2021/10/30 03:04:27;;;;;;;32.53;14.35;;;10.60;82.20;;;;;;5073381;28;20021;-55
2021/10/30 03:06:53;;;;;;;35.38;14.15;;;10.60;82.30;;;;;;5082185;28;20020;-55
2021/10/30 03:09:19;;;;;;;25.67;13.27;;;10.60;82.30;;;;;;5093169;28;20023;-55
2021/10/30 03:11:45;;;;;;;20.00;10.52;;;10.60;82.10;;;;;;5082244;28;20112;-53
2021/10/30 03:14:10;;;;;;;16.15;10.93;;;10.60;82.00;;;;;;5075038;28;20051;-56
2021/10/30 03:16:36;;;;;;;17.67;10.82;;;10.60;82.00;;;;;;5113869;28;20059;-56
2021/10/30 03:19:02;;;;;;;16.13;10.88;;;10.60;82.00;;;;;;5113671;28;20019;-54
2021/10/30 03:21:28;;;;;;;19.95;11.35;;;10.60;81.90;;;;;;5093326;28;20027;-54
2021/10/30 03:23:53;;;;;;;19.52;11.75;;;10.60;81.90;;;;;;5093211;28;20028;-54
2021/10/30 03:26:19;;;;;;;18.92;11.43;;;10.60;81.90;;;;;;5093341;28;20024;-53
2021/10/30 03:28:45;;;;;;;18.58;10.85;;;10.60;81.90;;;;;;5087256;28;20066;-53
2021/10/30 03:31:11;;;;;;;18.20;10.98;;;10.60;81.90;;;;;;5082872;28;20031;-53
2021/10/30 03:33:37;;;;;;;20.58;10.73;;;10.60;81.70;;;;;;5113565;28;20428;-52
2021/10/30 03:36:04;;;;;;;19.23;11.38;;;10.60;81.80;;;;;;5113189;28;20044;-55
2021/10/30 03:38:29;;;;;;;24.98;12.48;;;10.60;82.00;;;;;;5104561;28;20032;-53
2021/10/30 03:40:55;;;;;;;24.98;13.95;;;10.70;82.10;;;;;;5092831;28;20047;-55
2021/10/30 03:43:21;;;;;;;22.92;11.45;;;10.70;82.00;;;;;;5093266;28;20099;-54
2021/10/30 03:45:47;;;;;;;25.90;14.32;;;10.80;82.00;;;;;;5089683;28;20581;-53
2021/10/30 03:48:13;;;;;;;22.00;12.55;;;10.80;81.90;;;;;;5111409;28;20020;-54
2021/10/30 03:50:39;;;;;;;28.90;14.88;;;10.80;81.80;;;;;;5113838;28;20020;-54
2021/10/30 03:53:05;;;;;;;23.20;13.90;;;10.90;81.80;;;;;;5112947;28;20023;-55
2021/10/30 03:55:31;;;;;;;23.92;12.15;;;10.90;81.70;;;;;;5113826;28;20065;-56
2021/10/30 03:57:57;;;;;;;27.52;13.85;;;10.90;81.60;;;;;;5104071;28;20043;-54
2021/10/30 04:00:23;;;;;;;30.58;16.90;;;11.00;81.60;;;;;;5093229;28;20031;-56
2021/10/30 04:02:48;;;;;;;40.55;17.73;;;11.00;81.60;;;;;;5092497;28;20468;-56
2021/10/30 04:05:15;;;;;;;44.70;21.05;;;11.00;81.70;;;;;;5096249;28;20022;-53
2021/10/30 04:07:41;;;;;;;48.05;22.35;;;11.00;81.50;;;;;;5093168;28;20099;-55
2021/10/30 04:10:08;;;;;;;66.43;29.08;;;11.10;81.40;;;;;;5092973;28;20518;-55
2021/10/30 04:12:33;;;;;;;67.68;32.40;;;11.10;81.20;;;;;;5093159;28;20024;-56
2021/10/30 04:14:59;;;;;;;72.22;34.72;;;11.10;80.80;;;;;;5092901;28;20479;-55
2021/10/30 04:17:25;;;;;;;71.57;33.85;;;11.10;80.60;;;;;;5093127;28;20051;-56
2021/10/30 04:19:50;;;;;;;77.30;32.88;;;11.10;80.60;;;;;;5091868;28;20471;-55
2021/10/30 04:22:16;;;;;;;85.20;34.45;;;11.10;80.40;;;;;;5076736;28;20059;-53
2021/10/30 04:24:42;;;;;;;91.53;32.60;;;11.10;80.30;;;;;;5072828;28;20567;-53
2021/10/30 04:27:07;;;;;;;85.05;32.88;;;11.10;80.20;;;;;;5072888;28;20384;-56
2021/10/30 04:29:33;;;;;;;80.22;29.80;;;11.10;80.10;;;;;;5082793;28;20062;-54
2021/10/30 04:32:01;;;;;;;76.72;28.42;;;11.10;80.00;;;;;;5092748;28;20024;-53
2021/10/30 04:37:17;;;;;;;72.43;26.33;;;11.10;79.70;;;;;;5077727;28;20055;-56
2021/10/30 04:39:51;;;;;;;65.93;30.00;;;11.10;79.70;;;;;;5092048;28;20101;-53
2021/10/30 04:42:18;;;;;;;64.55;26.20;;;11.10;79.70;;;;;;5093026;28;20103;-53
2021/10/30 04:44:45;;;;;;;53.55;25.08;;;11.10;79.80;;;;;;5093099;28;20150;-55
2021/10/30 04:47:12;;;;;;;60.72;24.02;;;11.10;79.80;;;;;;5093213;28;20539;-55
2021/10/30 04:49:38;;;;;;;54.97;24.55;;;11.20;79.80;;;;;;5092444;28;20134;-56
2021/10/30 04:52:06;;;;;;;51.33;24.58;;;11.10;79.60;;;;;;5092407;28;20024;-53
2021/10/30 04:54:32;;;;;;;56.38;24.55;;;11.20;79.70;;;;;;5074264;28;20033;-56
2021/10/30 04:56:58;;;;;;;50.38;24.00;;;11.20;79.50;;;;;;5072333;28;20031;-56
2021/10/30 04:59:23;;;;;;;51.47;23.73;;;11.20;79.50;;;;;;5081560;28;20030;-53
2021/10/30 05:01:50;;;;;;;55.55;24.65;;;11.20;79.50;;;;;;5092779;28;20528;-53
2021/10/30 05:04:16;;;;;;;53.05;24.35;;;11.20;79.40;;;;;;5080769;28;20035;-56
2021/10/30 05:06:41;;;;;;;53.13;24.17;;;11.20;79.30;;;;;;5091727;28;20401;-56
2021/10/30 05:09:07;;;;;;;48.70;24.13;;;11.20;79.30;;;;;;5095862;28;20036;-53
2021/10/30 05:11:33;;;;;;;51.22;22.17;;;11.30;79.30;;;;;;5111567;28;20111;-55
2021/10/30 05:13:59;;;;;;;48.58;23.35;;;11.30;79.10;;;;;;5116840;28;20085;-53
2021/10/30 05:16:25;;;;;;;47.17;22.13;;;11.30;79.00;;;;;;5116701;28;20034;-54
2021/10/30 05:18:51;;;;;;;50.53;22.73;;;11.30;78.90;;;;;;5111875;28;20070;-54
2021/10/30 05:21:16;;;;;;;44.10;20.75;;;11.20;78.90;;;;;;5095938;28;20024;-55
2021/10/30 05:23:42;;;;;;;46.65;20.20;;;11.30;78.90;;;;;;5096109;28;20069;-54
2021/10/30 05:26:08;;;;;;;46.38;20.30;;;11.30;79.10;;;;;;5099861;28;20035;-53
2021/10/30 05:28:35;;;;;;;47.90;20.10;;;11.30;79.00;;;;;;5099844;28;20025;-53
2021/10/30 05:31:01;;;;;;;52.28;22.52;;;11.30;78.90;;;;;;5095864;28;20058;-56
2021/10/30 05:33:27;;;;;;;43.35;20.05;;;11.30;78.90;;;;;;5096280;28;20502;-55
2021/10/30 05:35:53;;;;;;;46.95;20.27;;;11.30;78.80;;;;;;5095700;28;20080;-56
2021/10/30 05:38:18;;;;;;;41.75;19.95;;;11.30;78.80;;;;;;5095846;28;20555;-55
2021/10/30 05:40:45;;;;;;;44.90;18.92;;;11.30;78.70;;;;;;5095378;28;20028;-54
2021/10/30 05:43:12;;;;;;;40.58;18.45;;;11.30;78.70;;;;;;5111587;28;20035;-56
2021/10/30 05:45:44;;;;;;;43.13;19.90;;;11.30;78.70;;;;;;5105978;28;20492;-56
2021/10/30 05:48:13;;;;;;;40.17;18.88;;;11.30;78.70;;;;;;5095962;28;20552;-57
2021/10/30 05:50:39;;;;;;;45.28;20.50;;;11.30;78.80;;;;;;5095736;28;20089;-56
2021/10/30 05:53:05;;;;;;;47.13;19.30;;;11.30;78.70;;;;;;5095592;28;20024;-53
2021/10/30 05:55:31;;;;;;;51.45;21.67;;;11.40;78.80;;;;;;5096085;28;20051;-54
2021/10/30 05:57:56;;;;;;;44.35;19.42;;;11.40;78.80;;;;;;5096084;28;20494;-56
2021/10/30 06:00:22;;;;;;;39.17;17.95;;;11.40;78.80;;;;;;5096686;28;20028;-56
2021/10/30 06:02:48;;;;;;;37.70;17.63;;;11.40;78.80;;;;;;5093078;28;20434;-56
2021/10/30 06:05:14;;;;;;;41.72;19.20;;;11.40;78.50;;;;;;5095555;28;20460;-55
2021/10/30 06:07:39;;;;;;;38.17;16.95;;;11.40;78.60;;;;;;5093882;28;20028;-56
2021/10/30 06:10:06;;;;;;;36.95;17.20;;;11.50;78.50;;;;;;5095350;28;20029;-56
2021/10/30 06:12:33;;;;;;;31.48;15.63;;;11.40;78.20;;;;;;5110512;28;20027;-53
2021/10/30 06:14:59;;;;;;;27.48;14.93;;;11.40;78.20;;;;;;5097011;28;20380;-56
2021/10/30 06:17:25;;;;;;;27.80;14.70;;;11.40;78.20;;;;;;5081245;28;20021;-55
2021/10/30 06:19:50;;;;;;;30.15;13.85;;;11.30;78.00;;;;;;5087423;28;20043;-53
2021/10/30 06:22:16;;;;;;;31.02;14.30;;;11.30;78.30;;;;;;5094987;28;20017;-56
2021/10/30 06:24:42;;;;;;;28.55;14.18;;;11.30;78.20;;;;;;5094627;28;20376;-56
2021/10/30 06:27:08;;;;;;;31.60;14.73;;;11.20;78.00;;;;;;5098241;28;20023;-52
2021/10/30 06:29:34;;;;;;;34.80;15.45;;;11.20;78.00;;;;;;5106208;28;20035;-53
2021/10/30 06:32:00;;;;;;;33.67;15.30;;;11.10;78.00;;;;;;5094388;28;20020;-56
2021/10/30 06:34:26;;;;;;;30.90;15.52;;;11.00;78.00;;;;;;5078033;28;20093;-55
2021/10/30 06:36:52;;;;;;;36.30;18.63;;;11.00;78.00;;;;;;5073969;28;20090;-56
2021/10/30 06:39:18;;;;;;;30.77;16.08;;;10.90;78.20;;;;;;5080908;28;20032;-55
2021/10/30 06:41:44;;;;;;;30.33;15.57;;;10.80;78.50;;;;;;5094731;28;20020;-56
2021/10/30 06:44:09;;;;;;;28.45;15.50;;;10.80;78.90;;;;;;5094630;28;20414;-55
2021/10/30 06:46:35;;;;;;;31.70;15.98;;;10.80;79.10;;;;;;5094437;28;20020;-56
2021/10/30 06:49:01;;;;;;;30.95;15.82;;;10.70;78.90;;;;;;5094210;28;20051;-56
2021/10/30 06:51:27;;;;;;;27.40;14.30;;;10.70;78.90;;;;;;5094266;28;20024;-55
2021/10/30 06:53:52;;;;;;;28.30;14.65;;;10.70;78.90;;;;;;5099765;28;20035;-53
2021/10/30 06:56:19;;;;;;;29.02;14.32;;;10.60;78.90;;;;;;5092647;28;20032;-55
2021/10/30 06:58:45;;;;;;;28.40;14.65;;;10.50;79.00;;;;;;5073409;28;20028;-55
2021/10/30 07:01:12;;;;;;;32.80;15.52;;;10.40;79.20;;;;;;5092573;28;20035;-56
2021/10/30 07:03:39;;;;;;;28.20;14.70;;;10.40;79.50;;;;;;5108178;28;20031;-56
2021/10/30 07:06:06;;;;;;;30.55;16.10;;;10.30;79.60;;;;;;5093620;28;20047;-52
2021/10/30 07:08:32;;;;;;;31.67;15.73;;;10.30;79.90;;;;;;5094054;28;20028;-56
2021/10/30 07:10:58;;;;;;;34.38;15.85;;;10.30;80.10;;;;;;5093691;28;20153;-55
2021/10/30 07:13:23;;;;;;;30.83;16.20;;;10.40;80.30;;;;;;5092006;28;20052;-55
2021/10/30 07:15:49;;;;;;;35.35;17.70;;;10.40;80.40;;;;;;5084179;28;20496;-56
2021/10/30 07:18:15;;;;;;;32.17;17.20;;;10.40;80.50;;;;;;5112581;28;20464;-56
2021/10/30 07:20:41;;;;;;;30.52;16.80;;;10.50;80.50;;;;;;5077888;28;20465;-53
2021/10/30 07:23:07;;;;;;;36.25;18.30;;;10.50;80.30;;;;;;5093079;28;20031;-56
2021/10/30 07:25:33;;;;;;;31.42;16.02;;;10.60;80.20;;;;;;5110568;28;20132;-53
2021/10/30 07:27:58;;;;;;;34.70;16.30;;;10.50;79.90;;;;;;5073953;28;20476;-53
2021/10/30 07:30:24;;;;;;;30.13;15.40;;;10.40;80.00;;;;;;5095090;28;20024;-54
2021/10/30 07:32:52;;;;;;;31.77;16.42;;;10.40;80.20;;;;;;5076578;28;20029;-56
2021/10/30 07:35:20;;;;;;;35.25;16.98;;;10.30;80.50;;;;;;5073510;28;20068;-55
2021/10/30 07:37:45;;;;;;;31.65;16.58;;;10.30;80.70;;;;;;5055783;28;20523;-56
2021/10/30 07:40:11;;;;;;;34.60;17.48;;;10.30;81.00;;;;;;5092978;28;20059;-55
2021/10/30 07:42:37;;;;;;;39.70;18.02;;;10.30;81.00;;;;;;5090192;28;20029;-56
2021/10/30 07:45:04;;;;;;;31.30;16.65;;;10.30;81.00;;;;;;5077297;28;20027;-56
2021/10/30 07:47:29;;;;;;;36.42;18.40;;;10.30;81.00;;;;;;5077654;28;20099;-55
2021/10/30 07:49:57;;;;;;;34.58;17.48;;;10.20;81.00;;;;;;5085421;28;20447;-56
2021/10/30 07:52:22;;;;;;;31.13;16.13;;;10.20;81.20;;;;;;5093791;28;20104;-56
2021/10/30 07:54:49;;;;;;;35.88;18.00;;;10.30;81.30;;;;;;5088184;28;20470;-56
2021/10/30 07:57:14;;;;;;;39.90;19.52;;;10.30;81.50;;;;;;5092224;28;20098;-56
2021/10/30 07:59:40;;;;;;;39.67;19.90;;;10.30;81.50;;;;;;5086734;28;20119;-55
2021/10/30 08:02:08;;;;;;;35.40;18.38;;;10.40;81.50;;;;;;5092382;28;20024;-53
2021/10/30 08:04:35;;;;;;;32.63;18.08;;;10.50;81.20;;;;;;5092130;28;20023;-55
2021/10/30 08:07:03;;;;;;;37.05;20.55;;;10.50;81.00;;;;;;5076761;28;20031;-56
2021/10/30 08:09:29;;;;;;;38.42;20.05;;;10.50;81.00;;;;;;5080143;28;20485;-53
2021/10/30 08:11:55;;;;;;;39.30;21.52;;;10.50;81.10;;;;;;5086622;28;20435;-53
2021/10/30 08:14:22;;;;;;;33.50;20.02;;;10.60;81.30;;;;;;5089445;28;20028;-53
2021/10/30 08:16:48;;;;;;;40.10;20.83;;;10.60;81.10;;;;;;5073385;28;20032;-55
2021/10/30 08:19:13;;;;;;;40.97;20.55;;;10.60;80.80;;;;;;5078693;28;20074;-56
2021/10/30 08:21:40;;;;;;;41.92;20.48;;;10.60;80.90;;;;;;5086331;28;20056;-56
2021/10/30 08:24:06;;;;;;;33.38;18.25;;;10.60;81.50;;;;;;5073002;28;20500;-54
2021/10/30 08:26:33;;;;;;;39.10;20.85;;;10.60;81.00;;;;;;5081401;28;20095;-56
2021/10/30 08:28:59;;;;;;;32.97;17.60;;;10.60;81.00;;;;;;5092564;28;20043;-56
2021/10/30 08:31:25;;;;;;;36.67;17.98;;;10.60;80.90;;;;;;5078961;28;20468;-54
2021/10/30 08:33:54;;;;;;;32.22;15.95;;;10.60;81.00;;;;;;5073235;28;20029;-56
2021/10/30 08:36:20;;;;;;;35.05;17.85;;;10.60;81.00;;;;;;5073020;28;20541;-54
2021/10/30 08:38:45;;;;;;;29.83;17.08;;;10.50;81.00;;;;;;5060655;28;20028;-56
2021/10/30 08:41:11;;;;;;;28.70;16.20;;;10.50;80.90;;;;;;5097459;28;20456;-56
2021/10/30 08:43:37;;;;;;;29.88;16.65;;;10.50;81.00;;;;;;5096954;28;20410;-53
2021/10/30 08:46:04;;;;;;;32.88;18.17;;;10.50;81.40;;;;;;5100581;28;20020;-53
2021/10/30 08:48:31;;;;;;;32.50;16.75;;;10.40;81.40;;;;;;5087258;28;20017;-55
2021/10/30 08:50:58;;;;;;;32.15;17.17;;;10.50;81.50;;;;;;5096353;28;20039;-53
2021/10/30 08:53:27;;;;;;;32.03;18.13;;;10.50;81.40;;;;;;5090529;28;20020;-54
2021/10/30 08:55:53;;;;;;;35.03;17.13;;;10.50;81.30;;;;;;5116633;28;20020;-56
2021/10/30 08:58:22;;;;;;;30.20;16.67;;;10.50;81.20;;;;;;5103664;28;20051;-56
2021/10/30 09:00:53;;;;;;;28.80;16.25;;;10.50;81.70;;;;;;5095392;28;20721;-54
2021/10/30 09:03:21;;;;;;;28.98;15.25;;;10.50;81.90;;;;;;5078034;28;20099;-56
2021/10/30 09:05:49;;;;;;;28.48;16.52;;;10.60;81.70;;;;;;5078397;28;20040;-56
2021/10/30 09:08:17;;;;;;;28.85;15.15;;;10.60;81.50;;;;;;5076101;28;20082;-53
2021/10/30 09:10:47;;;;;;;28.10;15.55;;;10.70;81.30;;;;;;5100144;28;20023;-54
2021/10/30 09:13:14;;;;;;;28.63;15.18;;;10.70;81.40;;;;;;5117462;28;20024;-53
2021/10/30 09:15:45;;;;;;;26.58;15.70;;;10.70;81.30;;;;;;5117645;28;20024;-56
2021/10/30 09:18:30;;;;;;;26.40;15.23;;;10.70;81.00;;;;;;5117535;28;20098;-54
2021/10/30 09:21:18;;;;;;;27.73;15.02;;;10.70;80.90;;;;;;5094911;28;20081;-56
2021/10/30 09:23:50;;;;;;;27.10;15.68;;;10.60;80.90;;;;;;5097239;28;20478;-55
2021/10/30 09:26:27;;;;;;;30.42;17.10;;;10.60;80.90;;;;;;5095992;28;20091;-56
2021/10/30 09:29:09;;;;;;;27.65;14.65;;;10.60;81.00;;;;;;5097001;28;20363;-56
2021/10/30 09:31:35;;;;;;;29.45;15.50;;;10.60;81.30;;;;;;5096840;28;20016;-56
2021/10/30 09:34:06;;;;;;;27.48;15.90;;;10.60;81.30;;;;;;5096970;28;20038;-55
2021/10/30 09:36:45;;;;;;;23.92;13.93;;;10.60;81.30;;;;;;5094432;28;20052;-55
2021/10/30 09:39:17;;;;;;;25.58;15.57;;;10.60;81.50;;;;;;5095849;28;20040;-55
2021/10/30 09:41:45;;;;;;;25.25;14.55;;;10.60;81.50;;;;;;5096634;28;20035;-56
2021/10/30 09:44:18;;;;;;;28.08;15.77;;;10.70;82.20;;;;;;5106637;28;20051;-53
2021/10/30 09:46:44;;;;;;;28.00;15.90;;;10.80;81.80;;;;;;5073045;28;20020;-55
2021/10/30 09:49:18;;;;;;;26.77;15.70;;;10.80;81.70;;;;;;5096346;28;20103;-54
2021/10/30 09:51:46;;;;;;;30.50;15.55;;;11.00;81.50;;;;;;5094898;28;20028;-56
2021/10/30 09:54:12;;;;;;;24.58;14.68;;;11.00;81.40;;;;;;5065697;28;20035;-56
2021/10/30 09:56:49;;;;;;;23.42;14.23;;;11.10;81.30;;;;;;5095910;28;20028;-53
2021/10/30 09:59:18;;;;;;;25.25;13.85;;;11.30;81.00;;;;;;5094928;28;20418;-56
2021/10/30 10:01:48;;;;;;;25.88;15.05;;;11.30;80.80;;;;;;5095318;28;20023;-55
2021/10/30 10:04:19;;;;;;;27.40;14.75;;;11.40;80.40;;;;;;5095535;28;20024;-53
2021/10/30 10:06:46;;;;;;;23.85;15.00;;;11.40;80.00;;;;;;5093784;28;20036;-55
2021/10/30 10:09:13;;;;;;;25.05;14.18;;;11.40;80.60;;;;;;5078542;28;20472;-56
2021/10/30 10:11:47;;;;;;;22.27;13.40;;;11.40;79.60;;;;;;5095253;28;20039;-56
2021/10/30 10:14:14;;;;;;;19.02;12.50;;;11.40;79.70;;;;;;5095415;28;20035;-56
2021/10/30 10:16:50;;;;;;;19.50;13.38;;;11.50;79.70;;;;;;5099874;28;20081;-56
2021/10/30 10:19:17;;;;;;;22.67;13.48;;;11.50;79.50;;;;;;5108054;28;20030;-55
2021/10/30 10:21:43;;;;;;;22.10;13.73;;;11.50;79.40;;;;;;5095250;28;20029;-56
2021/10/30 10:24:17;;;;;;;20.25;13.48;;;11.50;79.30;;;;;;5082097;28;20491;-53
2021/10/30 10:26:47;;;;;;;19.00;12.35;;;11.50;79.10;;;;;;5074993;28;20387;-53
2021/10/30 10:29:27;;;;;;;22.83;13.73;;;11.50;79.10;;;;;;5095230;28;20106;-53
2021/10/30 10:31:53;;;;;;;19.05;12.38;;;11.50;79.10;;;;;;5095608;28;20024;-55
2021/10/30 10:34:25;;;;;;;21.17;12.57;;;11.50;79.00;;;;;;5094944;28;20502;-56
2021/10/30 10:37:10;;;;;;;19.13;11.77;;;11.50;78.90;;;;;;5094640;28;20123;-56
2021/10/30 10:39:36;;;;;;;19.50;11.73;;;11.50;78.80;;;;;;5092649;28;20511;-55
2021/10/30 10:42:04;;;;;;;18.80;12.68;;;11.50;78.60;;;;;;5094803;28;20020;-53
2021/10/30 10:44:37;;;;;;;19.85;12.45;;;11.50;78.90;;;;;;5086857;28;20025;-56
2021/10/30 10:47:04;;;;;;;21.80;12.88;;;11.50;78.80;;;;;;5093260;28;20016;-55
2021/10/30 10:49:48;;;;;;;20.90;12.35;;;11.50;78.70;;;;;;5094650;28;20386;-54
2021/10/30 10:52:24;;;;;;;22.42;14.18;;;11.50;78.60;;;;;;5094528;28;20024;-56
2021/10/30 10:54:53;;;;;;;20.42;13.38;;;11.60;78.50;;;;;;5092111;28;20110;-54
2021/10/30 10:57:23;;;;;;;19.45;13.30;;;11.60;78.30;;;;;;5094038;28;20035;-56
2021/10/30 11:00:05;;;;;;;21.38;13.02;;;11.60;77.90;;;;;;5086638;28;20029;-53
2021/10/30 11:02:37;;;;;;;20.20;12.40;;;11.60;77.90;;;;;;5079239;28;20028;-56
2021/10/30 11:05:09;;;;;;;18.73;12.35;;;11.50;78.00;;;;;;5094889;28;20020;-55
2021/10/30 11:07:47;;;;;;;20.02;13.32;;;11.50;78.00;;;;;;5095012;28;20020;-53
2021/10/30 11:10:14;;;;;;;18.90;12.18;;;11.50;77.70;;;;;;5095622;28;20048;-56
2021/10/30 11:13:06;;;;;;;19.42;12.55;;;11.50;77.80;;;;;;5092988;28;20024;-55
2021/10/30 11:15:41;;;;;;;19.35;11.98;;;11.40;77.70;;;;;;5092369;28;20028;-56
2021/10/30 11:18:22;;;;;;;19.58;12.07;;;11.40;77.80;;;;;;5090616;28;20033;-54
2021/10/30 11:21:16;;;;;;;20.63;12.37;;;11.40;77.80;;;;;;5091851;28;20035;-56
2021/10/30 11:23:50;;;;;;;20.33;13.02;;;11.40;77.80;;;;;;5069743;28;20032;-56
2021/10/30 11:26:27;;;;;;;21.77;14.48;;;11.40;77.60;;;;;;5115016;28;20475;-54
2021/10/30 11:29:04;;;;;;;23.35;14.13;;;11.40;77.70;;;;;;5093717;28;20047;-55
2021/10/30 11:31:30;;;;;;;19.85;12.27;;;11.40;77.80;;;;;;5093584;28;20506;-53
2021/10/30 11:34:00;;;;;;;21.45;13.43;;;11.30;77.80;;;;;;5093855;28;20031;-56
2021/10/30 11:36:27;;;;;;;22.55;12.57;;;11.40;77.70;;;;;;5089570;28;20051;-52
2021/10/30 11:38:55;;;;;;;19.73;11.88;;;11.40;77.60;;;;;;5092195;28;20392;-56
2021/10/30 11:41:26;;;;;;;18.48;12.70;;;11.30;77.60;;;;;;5113112;28;20048;-53
2021/10/30 11:44:01;;;;;;;21.08;13.48;;;11.30;77.60;;;;;;5114497;28;20522;-53
2021/10/30 11:46:27;;;;;;;22.13;12.80;;;11.30;77.70;;;;;;5099392;28;20101;-53
2021/10/30 11:48:56;;;;;;;21.48;14.18;;;11.30;77.80;;;;;;5093221;28;20073;-54
2021/10/30 11:51:30;;;;;;;20.30;12.73;;;11.30;77.60;;;;;;5093714;28;20052;-54
2021/10/30 11:53:56;;;;;;;26.58;13.77;;;11.30;77.70;;;;;;5092719;28;20036;-56
2021/10/30 11:56:28;;;;;;;23.40;13.13;;;11.30;77.60;;;;;;5078760;28;20380;-53
2021/10/30 11:58:55;;;;;;;19.33;12.02;;;11.30;77.40;;;;;;5073326;28;20032;-53
2021/10/30 12:01:24;;;;;;;20.80;13.15;;;11.20;76.80;;;;;;5090222;28;20492;-56
2021/10/30 12:03:52;;;;;;;21.85;14.18;;;11.10;77.10;;;;;;5093182;28;20339;-54
2021/10/30 12:06:18;;;;;;;21.55;12.85;;;11.00;77.50;;;;;;5093228;28;20103;-56
2021/10/30 12:08:45;;;;;;;21.80;11.90;;;11.00;77.90;;;;;;5093026;28;20032;-56
2021/10/30 12:11:11;;;;;;;19.50;12.55;;;11.00;77.90;;;;;;5092807;28;20487;-55
2021/10/30 12:13:48;;;;;;;27.27;11.23;;;11.00;78.00;;;;;;5100961;28;20251;-54
2021/10/30 12:16:14;;;;;;;19.40;11.45;;;11.00;77.80;;;;;;5081877;28;20032;-54
2021/10/30 12:18:42;;;;;;;17.75;11.35;;;10.90;77.80;;;;;;5090597;28;20059;-55
2021/10/30 12:21:14;;;;;;;22.75;10.95;;;10.90;78.30;;;;;;5092962;28;20412;-56
2021/10/30 12:23:55;;;;;;;18.08;12.13;;;10.90;78.40;;;;;;5092006;28;20471;-57
2021/10/30 12:26:21;;;;;;;18.85;10.73;;;10.80;78.20;;;;;;5090779;28;20035;-53
2021/10/30 12:28:47;;;;;;;15.93;10.23;;;10.70;78.40;;;;;;5093861;28;20387;-54
2021/10/30 12:31:14;;;;;;;33.03;11.63;;;10.70;78.60;;;;;;5104693;28;20077;-54
2021/10/30 12:33:43;;;;;;;20.38;9.88;;;10.70;78.90;;;;;;5093292;28;20039;-56